Bei Facebook empfehlenBei Twitter postenGoogle plusPinterest

Das Wetter im Erzgebirge am 22.07.2017

Wetter und Klima am 22.07.2017 Holzhau im Erzgebirge (630m ü.NN)
Letzte gemessene Temperatur und Uhrzeit der Messung23:45:00 Uhr14.60 °C
Temperatur (Maximum / Höchstwert) und Uhrzeit der Messung12:30:00 Uhr27.10 °C
Temperatur (Minimum / Tiefstwert) und Uhrzeit der Messung01:00:0013.90 °C
Errechneter Absolutwert der Temperaturschwankungen zwischen Tmin und Tmax des Tages13.20 K
Errechnete Tagesmitteltemperatur19.61875 °C
Gesamt - Niederschlag des Tages (in flüssiger Form)33.15 Liter / m²
Luftdruck (Maximum / Höchstwert) und Zeitpunkt der Messung23:00:00 Uhr1012.70 hPa
Luftdruck (Minimum / Tiefstwert) und Zeitpunkt der Messung04:15:00 Uhr1010.40 hPa
Errechneter Absolutwert der Luftdruckschwankungen des Tages2.30 hPa
Höchste gemessene Windgeschwindigkeit und Uhrzeit der Messung11:15:00 Uhr46.80 km/h
Errechnete Windhäufigkeit in Relation zu den Messwerten des Tages23.95833 %
Niedrigste Windkühle (Windchill) und Zeitpunkt der Messung01:00:00 Uhr13.90 °C
Taupunkt (Maximum / Höchstwert) und Uhrzeit der Messung17:30:00 Uhr19.30 °C
Taupunkt (Minimum / Tiefstwert) und Uhrzeit der Messung00:45:0011.20 °C
Anzahl der automatisch eingelesenen Messwerte 96

Detaillierte Wetter- und Klima- Messwerte für den 22.07.2017 in Holzhau im Erzgebirge (630m ü.NN)
ZeitTemperaturLuftdruckRel. LuftfeuchteWindWindrichtungWindchillTaupunktNiederschlag l/m²
23:45:0014.60 °C1012.20 hPa93.00 %13.50 °C33.15
23:30:0014.60 °C1012.40 hPa92.00 %13.30 °C33.15
23:15:0014.90 °C1012.50 hPa92.00 %13.60 °C33.15
23:00:0015.30 °C1012.70 hPa91.00 %13.80 °C33.15
22:45:0015.60 °C1012.40 hPa92.00 %14.30 °C33.15
22:30:0015.80 °C1012.30 hPa92.00 %14.50 °C33.15
22:15:0015.80 °C1012.20 hPa90.00 %14.20 °C33.15
22:00:0016.20 °C1012.30 hPa90.00 %14.60 °C33.15
21:45:0016.50 °C1012.30 hPa91.00 %15.00 °C33.15
21:30:0016.80 °C1012.20 hPa90.00 %15.20 °C33.15
21:15:0017.10 °C1012.00 hPa89.00 %15.30 °C33.15
21:00:0017.50 °C1011.70 hPa86.00 %15.10 °C33.15
20:45:0018.20 °C1011.70 hPa86.00 %15.80 °C33.15
20:30:0019.20 °C1011.90 hPa84.00 %16.40 °C33.15
20:15:0020.10 °C1011.80 hPa83.00 %17.10 °C33.15
20:00:0020.70 °C1011.90 hPa82.00 %17.50 °C33.15
19:45:0021.10 °C1011.90 hPa82.00 %28.44 km/hNW22.10 °C17.90 °C33.15
19:30:0021.30 °C1011.70 hPa81.00 %15.48 km/hWNW21.30 °C17.90 °C33.15
19:15:0021.90 °C1011.80 hPa79.00 %18.10 °C33.15
19:00:0022.60 °C1012.00 hPa75.00 %17.90 °C33.15
18:45:0022.70 °C1011.90 hPa75.00 %18.00 °C33.15
18:30:0022.80 °C1012.10 hPa76.00 %18.30 °C33.15
18:15:0022.50 °C1012.00 hPa76.00 %18.10 °C33.15
18:00:0022.40 °C1012.10 hPa78.00 %18.40 °C33.15
17:45:0022.50 °C1011.80 hPa78.00 %18.50 °C33.15
17:30:0022.50 °C1011.80 hPa82.00 %19.30 °C33.15
17:15:0021.90 °C1011.70 hPa84.00 %19.10 °C33.15
17:00:0021.50 °C1011.50 hPa87.00 %19.20 °C33.15
16:45:0020.60 °C1011.60 hPa89.00 %18.70 °C33.15
16:30:0019.10 °C1011.50 hPa91.00 %17.60 °C33.15
16:15:0017.30 °C1011.90 hPa90.00 %15.60 °C33.15
16:00:0016.60 °C1012.30 hPa88.00 %14.60 °C33.15
15:45:0016.30 °C1012.40 hPa86.00 %14.00 °C32.63
15:30:0016.60 °C1012.60 hPa84.00 %13.90 °C30.04
15:15:0018.20 °C1012.60 hPa80.00 %14.70 °C18.65
15:00:0021.90 °C1012.30 hPa69.00 %20.88 km/hSSW23.20 °C16.00 °C 
14:45:0024.90 °C1011.70 hPa64.00 %17.60 °C 
14:30:0025.20 °C1011.30 hPa66.00 %18.40 °C 
14:15:0022.80 °C1012.10 hPa73.00 %17.70 °C 
14:00:0023.40 °C1011.80 hPa66.00 %16.70 °C 
13:45:0025.30 °C1011.80 hPa59.00 %20.88 km/hWSW27.10 °C16.70 °C 
13:30:0026.10 °C1011.70 hPa55.00 %16.40 °C 
13:15:0026.70 °C1011.90 hPa54.00 %19.44 km/hSO28.70 °C16.60 °C 
13:00:0026.80 °C1011.90 hPa56.00 %19.44 km/hSSW28.80 °C17.30 °C 
12:45:0026.90 °C1012.10 hPa54.00 %16.80 °C 
12:30:0027.10 °C1012.00 hPa54.00 %42.84 km/hWSW29.00 °C17.00 °C 
12:15:0026.60 °C1011.90 hPa55.00 %23.40 km/hSSO28.50 °C16.80 °C 
12:00:0026.70 °C1011.50 hPa58.00 %23.40 km/hSO28.70 °C17.70 °C 
11:45:0024.90 °C1011.70 hPa59.00 %16.30 °C 
11:30:0023.90 °C1012.00 hPa60.00 %15.48 km/hO23.90 °C15.70 °C 
11:15:0023.90 °C1011.80 hPa58.00 %46.80 km/hS25.10 °C15.10 °C 
11:00:0023.90 °C1011.70 hPa59.00 %29.88 km/hS25.30 °C15.40 °C 
10:45:0023.50 °C1011.60 hPa61.00 %12.96 km/hS23.50 °C15.50 °C 
10:30:0023.90 °C1011.50 hPa57.00 %14.90 °C 
10:15:0024.20 °C1011.40 hPa59.00 %9.00 km/hSO24.20 °C15.70 °C 
10:00:0023.90 °C1011.50 hPa60.00 %33.84 km/hSO25.30 °C15.70 °C 
09:45:0023.90 °C1011.30 hPa61.00 %30.96 km/hWSW25.30 °C15.90 °C 
09:30:0023.90 °C1011.60 hPa60.00 %15.70 °C 
09:15:0023.90 °C1011.40 hPa62.00 %16.20 °C 
09:00:0023.50 °C1011.20 hPa63.00 %16.10 °C 
08:45:0023.40 °C1011.30 hPa63.00 %16.00 °C 
08:30:0023.20 °C1011.30 hPa64.00 %16.00 °C 
08:15:0022.90 °C1011.10 hPa63.00 %12.96 km/hOSO22.90 °C15.50 °C 
08:00:0022.90 °C1011.10 hPa64.00 %3.96 km/hO22.90 °C15.70 °C 
07:45:0022.60 °C1011.00 hPa66.00 %15.90 °C 
07:30:0020.50 °C1010.80 hPa72.00 %15.30 °C 
07:15:0019.60 °C1010.80 hPa74.00 %14.80 °C 
07:00:0018.60 °C1010.90 hPa75.00 %14.10 °C 
06:45:0018.40 °C1010.90 hPa75.00 %3.96 km/hSO18.40 °C13.90 °C 
06:30:0018.10 °C1010.80 hPa75.00 %13.60 °C 
06:15:0017.80 °C1010.90 hPa76.00 %13.50 °C 
06:00:0017.10 °C1010.90 hPa77.00 %13.00 °C 
05:45:0016.50 °C1010.80 hPa79.00 %12.80 °C 
05:30:0016.20 °C1010.60 hPa79.00 %12.60 °C 
05:15:0016.10 °C1010.60 hPa79.00 %12.50 °C 
05:00:0016.20 °C1010.60 hPa79.00 %12.60 °C 
04:45:0016.30 °C1010.60 hPa80.00 %12.80 °C 
04:30:0016.10 °C1010.60 hPa80.00 %3.96 km/hOSO16.10 °C12.70 °C 
04:15:0016.10 °C1010.40 hPa81.00 %12.80 °C 
04:00:0015.90 °C1010.40 hPa82.00 %10.44 km/hOSO15.90 °C12.80 °C 
03:45:0015.80 °C1010.50 hPa82.00 %12.70 °C 
03:30:0015.70 °C1010.50 hPa83.00 %12.80 °C 
03:15:0015.40 °C1010.60 hPa84.00 %12.70 °C 
03:00:0014.90 °C1010.70 hPa86.00 %12.60 °C 
02:45:0014.40 °C1011.00 hPa86.00 %12.10 °C 
02:30:0014.30 °C1011.10 hPa85.00 %11.80 °C 
02:15:0014.20 °C1011.20 hPa86.00 %11.90 °C 
02:00:0014.30 °C1011.10 hPa85.00 %11.80 °C 
01:45:0014.20 °C1011.20 hPa86.00 %11.90 °C 
01:30:0014.10 °C1011.40 hPa85.00 %11.52 km/hSO14.10 °C11.60 °C 
01:15:0014.10 °C1011.30 hPa85.00 %11.60 °C 
01:00:0013.90 °C1011.50 hPa85.00 %11.40 °C 
00:45:0013.90 °C1011.40 hPa84.00 %16.92 km/hOSO13.90 °C11.20 °C 
00:30:0014.10 °C1011.50 hPa84.00 %11.40 °C 
00:15:0014.30 °C1011.50 hPa83.00 %11.50 °C 
00:00:0014.30 °C1011.50 hPa83.00 %11.50 °C 

Permanenter Link zu dieser Seite: Wetter im Erzgebirge am 22.07.2017
Performance-Info: Die Erstellung der Seite / Statistik(en) / Tabelle(n) erforderte 5 Datenbankserver-Abfrage(n) und dauerte 96 Millisekunden. (Dieser Messwert ist von der Gesamt-Auslastung des Servers abhängig.)
Erzgebirge - Wetter | Erzgebirge - Wetter (Mobilgeräte) | Komplette Klimadatenbank